Time;durP1;ratioP1;P1;durP2;ratioP2;P2;SDS_P1;SDS_P2;PMS_P1;PMS_P2;Temp;Humidity;BMP_temperature;BMP_pressure;BME280_temperature;BME280_humidity;BME280_pressure;Samples;Min_cycle;Max_cycle;Signal;HPM_P1;HPM_P2
2022/02/14 00:02:00;;;;;;;24.25;19.82;;;24.90;96.30;;;;;;1762045;80;21643;-82
2022/02/14 00:04:31;;;;;;;20.72;16.17;;;24.90;96.40;;;;;;1760838;80;21246;-82
2022/02/14 00:07:01;;;;;;;19.90;15.85;;;24.90;96.30;;;;;;1722921;83;21184;-82
2022/02/14 00:09:33;;;;;;;20.00;15.08;;;24.90;96.30;;;;;;1758293;80;21219;-83
2022/02/14 00:12:05;;;;;;;20.65;17.00;;;24.90;96.20;;;;;;1762497;81;21515;-84
2022/02/14 00:14:36;;;;;;;19.77;15.90;;;24.90;96.50;;;;;;1721599;82;21308;-83
2022/02/14 00:17:06;;;;;;;17.55;14.53;;;24.90;96.60;;;;;;1762466;80;21231;-84
2022/02/14 00:19:37;;;;;;;18.75;14.63;;;24.90;96.20;;;;;;1723862;83;21232;-83
2022/02/14 00:22:10;;;;;;;20.10;14.15;;;24.80;96.00;;;;;;1760523;80;21089;-83
2022/02/14 00:24:41;;;;;;;18.27;14.58;;;24.80;95.90;;;;;;1736838;80;21653;-84
2022/02/14 00:27:11;;;;;;;15.23;13.00;;;24.80;96.00;;;;;;1759632;80;21168;-85
2022/02/14 00:29:42;;;;;;;14.55;12.25;;;24.80;95.80;;;;;;1728895;82;21983;-85
2022/02/14 00:32:13;;;;;;;18.42;13.68;;;24.80;95.70;;;;;;1761364;80;21248;-84
2022/02/14 00:34:44;;;;;;;21.82;15.88;;;24.80;95.80;;;;;;1721688;83;21185;-84
2022/02/14 00:37:16;;;;;;;21.82;14.63;;;24.90;95.80;;;;;;1758033;80;21136;-84
2022/02/14 00:39:47;;;;;;;16.55;12.33;;;24.90;95.60;;;;;;1747610;80;21171;-87
2022/02/14 00:42:21;;;;;;;16.27;12.63;;;24.90;95.60;;;;;;1755954;80;21155;-89
2022/02/14 00:44:55;;;;;;;18.50;12.68;;;24.90;95.60;;;;;;1728289;82;21173;-90
2022/02/14 00:47:26;;;;;;;21.17;14.20;;;24.90;95.60;;;;;;1742982;81;21189;-91
2022/02/14 00:49:57;;;;;;;14.80;11.88;;;25.00;95.40;;;;;;1748308;81;21107;-90
2022/02/14 00:52:28;;;;;;;15.05;11.83;;;25.00;95.40;;;;;;1746040;81;21088;-91
2022/02/14 00:54:59;;;;;;;14.73;10.63;;;25.00;95.30;;;;;;1749731;81;21159;-91
2022/02/14 00:57:32;;;;;;;16.85;10.63;;;24.90;95.20;;;;;;1717879;82;21789;-91
2022/02/14 01:00:04;;;;;;;18.82;11.15;;;25.00;95.20;;;;;;1754087;81;21154;-91
2022/02/14 01:02:35;;;;;;;17.23;12.80;;;24.90;95.10;;;;;;1754576;81;21190;-90
2022/02/14 01:05:07;;;;;;;18.23;14.78;;;24.90;95.20;;;;;;1712637;82;21199;-90
2022/02/14 01:07:38;;;;;;;16.90;12.03;;;24.90;95.10;;;;;;1747439;81;21147;-91
2022/02/14 01:10:11;;;;;;;12.82;10.40;;;24.90;95.10;;;;;;1760422;81;21107;-90
2022/02/14 01:12:43;;;;;;;14.65;10.08;;;24.90;94.90;;;;;;1712017;82;21174;-93
2022/02/14 01:15:14;;;;;;;17.62;11.33;;;24.90;94.90;;;;;;1750385;81;21151;-91
2022/02/14 01:17:45;;;;;;;13.88;10.08;;;24.90;94.90;;;;;;1741632;81;21151;-90
2022/02/14 01:20:19;;;;;;;14.68;10.80;;;24.90;94.80;;;;;;1742885;81;21262;-91
2022/02/14 01:22:50;;;;;;;11.15;9.65;;;24.90;94.90;;;;;;1755872;81;21555;-90
2022/02/14 01:25:21;;;;;;;11.80;10.10;;;24.90;94.80;;;;;;1765369;81;21170;-91
2022/02/14 01:27:53;;;;;;;12.58;9.68;;;24.90;94.70;;;;;;1739093;81;21158;-92
2022/02/14 01:30:24;;;;;;;11.88;9.15;;;24.90;94.50;;;;;;1748195;81;21123;-90
2022/02/14 01:32:58;;;;;;;99.87;15.90;;;25.00;94.40;;;;;;1748846;80;21174;-71
2022/02/14 01:35:29;;;;;;;15.65;9.40;;;25.00;94.50;;;;;;1747493;81;21095;-72
2022/02/14 01:38:01;;;;;;;12.95;8.60;;;25.00;94.40;;;;;;1746216;82;21151;-70
2022/02/14 01:40:33;;;;;;;12.90;9.15;;;25.10;94.30;;;;;;1736852;81;21684;-70
2022/02/14 01:43:04;;;;;;;10.05;8.03;;;25.20;93.80;;;;;;1712128;82;21159;-70
2022/02/14 01:45:34;;;;;;;9.13;7.30;;;25.20;93.50;;;;;;1745647;81;21134;-71
2022/02/14 01:48:06;;;;;;;13.80;8.68;;;25.30;93.20;;;;;;1733908;81;21214;-70
2022/02/14 01:50:37;;;;;;;10.00;7.45;;;25.30;92.90;;;;;;1726986;81;21127;-71
2022/02/14 01:53:08;;;;;;;10.98;7.03;;;25.30;92.90;;;;;;1736881;81;21205;-71
2022/02/14 01:55:38;;;;;;;8.73;6.78;;;25.40;92.40;;;;;;1730523;81;21195;-73
2022/02/14 01:58:09;;;;;;;9.20;6.70;;;25.50;92.20;;;;;;1732500;81;21243;-73
2022/02/14 02:00:40;;;;;;;9.70;6.78;;;25.50;91.80;;;;;;1701939;83;21308;-80
2022/02/14 02:03:13;;;;;;;9.48;6.90;;;25.50;91.70;;;;;;1733011;81;21244;-79
2022/02/14 02:05:46;;;;;;;11.15;7.62;;;25.50;91.90;;;;;;1700761;84;21132;-79
2022/02/14 02:08:17;;;;;;;8.73;6.78;;;25.50;91.90;;;;;;1730172;81;21251;-79
2022/02/14 02:10:47;;;;;;;7.90;6.50;;;25.60;91.30;;;;;;1732967;81;21251;-80
2022/02/14 02:13:19;;;;;;;8.75;6.53;;;25.60;91.60;;;;;;1731926;81;21163;-72
2022/02/14 02:15:50;;;;;;;11.38;7.10;;;25.60;91.60;;;;;;1728867;81;21779;-72
2022/02/14 02:18:23;;;;;;;9.38;6.67;;;25.60;91.80;;;;;;1727528;81;21211;-71
2022/02/14 02:20:54;;;;;;;10.32;6.97;;;25.60;90.70;;;;;;1733017;81;21723;-70
2022/02/14 02:23:25;;;;;;;9.63;6.78;;;25.60;90.80;;;;;;1726093;81;21207;-70
2022/02/14 02:25:55;;;;;;;11.18;7.22;;;25.50;91.00;;;;;;1743474;81;21263;-71
2022/02/14 02:28:26;;;;;;;10.85;7.47;;;25.50;91.30;;;;;;1734548;81;21736;-70
2022/02/14 02:30:58;;;;;;;8.95;6.95;;;25.50;91.40;;;;;;1742471;81;21247;-70
2022/02/14 02:33:31;;;;;;;9.38;7.58;;;25.50;91.40;;;;;;1736323;81;21368;-69
2022/02/14 02:36:02;;;;;;;9.43;6.90;;;25.50;91.40;;;;;;1730238;81;21270;-69
2022/02/14 02:38:34;;;;;;;9.58;7.22;;;25.50;91.40;;;;;;1700764;83;21172;-70
2022/02/14 02:41:05;;;;;;;13.88;8.15;;;25.50;91.60;;;;;;1686279;84;21717;-69
2022/02/14 02:43:35;;;;;;;15.05;10.78;;;25.60;91.70;;;;;;1699957;84;22200;-69
2022/02/14 02:46:07;;;;;;;16.40;13.22;;;25.60;92.40;;;;;;1731266;81;21624;-70
2022/02/14 02:48:38;;;;;;;15.30;13.35;;;25.60;93.20;;;;;;1739571;81;21581;-69
2022/02/14 02:51:09;;;;;;;17.30;13.72;;;25.50;93.50;;;;;;1704039;82;21690;-69
2022/02/14 02:53:40;;;;;;;16.10;13.80;;;25.50;93.80;;;;;;1700424;83;21886;-70
2022/02/14 02:56:11;;;;;;;16.62;14.10;;;25.50;94.20;;;;;;1708787;82;21241;-70
2022/02/14 02:58:41;;;;;;;14.47;11.68;;;25.50;94.50;;;;;;1711194;82;21259;-69
2022/02/14 03:01:12;;;;;;;15.72;13.15;;;25.50;94.40;;;;;;1699458;83;21758;-70
2022/02/14 03:03:43;;;;;;;18.70;12.80;;;25.50;94.50;;;;;;1705453;84;21273;-72
2022/02/14 03:06:14;;;;;;;14.85;12.15;;;25.50;94.60;;;;;;1706460;82;21202;-71
2022/02/14 03:08:44;;;;;;;14.98;11.75;;;25.40;94.70;;;;;;1708238;84;21202;-70
2022/02/14 03:11:15;;;;;;;14.40;11.60;;;25.40;94.60;;;;;;1709120;82;21222;-71
2022/02/14 03:13:47;;;;;;;15.10;11.03;;;25.40;94.70;;;;;;1706095;83;21249;-72
2022/02/14 03:16:19;;;;;;;13.08;10.35;;;25.30;94.80;;;;;;1711068;82;21685;-71
2022/02/14 03:18:51;;;;;;;12.58;8.78;;;25.30;94.60;;;;;;1708709;82;21215;-70
2022/02/14 03:21:22;;;;;;;10.15;8.40;;;25.30;94.00;;;;;;1706722;83;21332;-70
2022/02/14 03:23:54;;;;;;;10.50;6.40;;;25.30;93.90;;;;;;1712565;83;21210;-71
2022/02/14 03:26:26;;;;;;;10.40;6.97;;;25.30;92.80;;;;;;1707256;83;21269;-71
2022/02/14 03:28:58;;;;;;;8.50;6.53;;;25.20;92.20;;;;;;1704918;82;21157;-71
2022/02/14 03:31:29;;;;;;;7.35;4.83;;;25.30;91.90;;;;;;1682218;84;21220;-70
2022/02/14 03:33:59;;;;;;;9.08;5.45;;;25.30;90.80;;;;;;1706790;83;21565;-69
2022/02/14 03:36:30;;;;;;;6.78;4.33;;;25.30;90.50;;;;;;1689495;84;21164;-72
2022/02/14 03:39:01;;;;;;;6.53;4.87;;;25.30;89.50;;;;;;1683358;85;21202;-70
2022/02/14 03:41:32;;;;;;;7.78;4.78;;;25.30;87.90;;;;;;1682294;84;21153;-70
2022/02/14 03:44:02;;;;;;;7.33;4.22;;;25.30;88.30;;;;;;1712627;84;21695;-69
2022/02/14 03:46:33;;;;;;;10.18;4.62;;;25.30;87.30;;;;;;1677272;84;21241;-71
2022/02/14 03:49:05;;;;;;;4.80;4.10;;;25.30;87.70;;;;;;1715692;82;21191;-70
2022/02/14 03:51:36;;;;;;;7.42;4.58;;;25.30;87.30;;;;;;1726869;82;21147;-70
2022/02/14 03:54:07;;;;;;;5.90;4.25;;;25.30;87.20;;;;;;1761641;81;21221;-70
2022/02/14 03:56:37;;;;;;;7.95;5.10;;;25.30;87.10;;;;;;1768387;80;21204;-71
2022/02/14 03:59:08;;;;;;;8.23;4.80;;;25.30;87.20;;;;;;1731565;82;21205;-72
2022/02/14 04:01:40;;;;;;;8.18;5.03;;;25.30;86.70;;;;;;1761576;80;22397;-71
2022/02/14 04:04:11;;;;;;;6.00;4.67;;;25.30;86.90;;;;;;1762938;80;21136;-71
2022/02/14 04:06:42;;;;;;;6.05;4.75;;;25.30;86.80;;;;;;1767699;80;21144;-71
2022/02/14 04:09:12;;;;;;;6.80;5.47;;;25.30;87.00;;;;;;1767908;80;21148;-72
2022/02/14 04:11:43;;;;;;;7.62;6.08;;;25.30;87.60;;;;;;1756258;80;21743;-71
2022/02/14 04:14:14;;;;;;;7.62;5.72;;;25.30;88.70;;;;;;1763138;80;21152;-70
2022/02/14 04:16:45;;;;;;;6.85;5.87;;;25.30;90.00;;;;;;1760024;80;21636;-71
2022/02/14 04:19:16;;;;;;;8.65;6.15;;;25.30;90.20;;;;;;1761920;80;21223;-71
2022/02/14 04:21:47;;;;;;;10.23;6.17;;;25.40;90.40;;;;;;1759429;80;21204;-71
2022/02/14 04:24:17;;;;;;;8.88;6.35;;;25.40;90.60;;;;;;1757713;80;21148;-70
2022/02/14 04:26:48;;;;;;;7.62;5.53;;;25.40;90.60;;;;;;1728847;82;21677;-71
2022/02/14 04:29:20;;;;;;;9.18;6.55;;;25.40;90.60;;;;;;1728810;82;21153;-71
2022/02/14 04:31:51;;;;;;;10.72;7.17;;;25.40;90.50;;;;;;1768392;80;21211;-71
2022/02/14 04:34:21;;;;;;;7.42;6.05;;;25.40;90.50;;;;;;1762090;80;21187;-72
2022/02/14 04:36:53;;;;;;;10.53;7.17;;;25.30;90.50;;;;;;1754050;80;21178;-71
2022/02/14 04:39:24;;;;;;;9.25;6.20;;;25.30;90.60;;;;;;1760148;80;21215;-71
2022/02/14 04:41:55;;;;;;;15.53;7.25;;;25.30;90.50;;;;;;1761318;80;21213;-71
2022/02/14 04:44:26;;;;;;;10.32;5.90;;;25.30;90.40;;;;;;1725372;83;21791;-71
2022/02/14 04:46:57;;;;;;;8.28;5.78;;;25.30;90.50;;;;;;1758453;80;21274;-71
2022/02/14 04:49:27;;;;;;;13.15;7.75;;;25.30;90.60;;;;;;1759173;80;21226;-71
2022/02/14 04:51:59;;;;;;;10.93;6.80;;;25.20;90.70;;;;;;1758495;80;21144;-72
2022/02/14 04:54:29;;;;;;;7.87;5.92;;;25.20;90.90;;;;;;1724525;82;21705;-70
2022/02/14 04:57:00;;;;;;;9.58;6.40;;;25.20;90.90;;;;;;1756839;80;21195;-83
2022/02/14 04:59:30;;;;;;;13.05;7.12;;;25.30;90.90;;;;;;1753221;80;21208;-83
2022/02/14 05:02:01;;;;;;;9.55;7.08;;;25.30;90.50;;;;;;1759814;80;21121;-84
2022/02/14 05:04:32;;;;;;;14.05;7.17;;;25.30;90.30;;;;;;1761911;80;21239;-84
2022/02/14 05:07:03;;;;;;;11.10;6.75;;;25.30;90.10;;;;;;1757287;80;21529;-84
2022/02/14 05:09:33;;;;;;;8.73;6.45;;;25.30;90.00;;;;;;1719352;82;21221;-85
2022/02/14 05:12:05;;;;;;;10.10;6.30;;;25.20;90.20;;;;;;1753520;80;21104;-84
2022/02/14 05:14:36;;;;;;;8.85;6.15;;;25.20;90.30;;;;;;1723413;82;21253;-84
2022/02/14 05:17:07;;;;;;;7.85;5.60;;;25.30;90.00;;;;;;1761687;80;21220;-84
2022/02/14 05:19:38;;;;;;;8.45;5.35;;;25.30;90.00;;;;;;1720572;82;21178;-83
2022/02/14 05:22:10;;;;;;;11.22;6.20;;;25.30;89.90;;;;;;1759292;80;21220;-83
2022/02/14 05:24:41;;;;;;;8.30;5.33;;;25.40;89.30;;;;;;1728610;82;21724;-83
2022/02/14 05:27:12;;;;;;;7.53;5.05;;;25.40;89.30;;;;;;1759826;80;21528;-83
2022/02/14 05:29:43;;;;;;;7.53;5.10;;;25.30;89.50;;;;;;1760186;80;21109;-84
2022/02/14 05:32:14;;;;;;;11.57;5.67;;;25.30;89.40;;;;;;1761905;80;21781;-86
2022/02/14 05:34:45;;;;;;;7.53;4.70;;;25.30;89.50;;;;;;1725849;82;21314;-83
2022/02/14 05:37:16;;;;;;;9.10;5.05;;;25.30;89.20;;;;;;1746388;80;21232;-84
2022/02/14 05:39:47;;;;;;;8.63;5.40;;;25.30;89.30;;;;;;1741984;80;21679;-83
2022/02/14 05:42:18;;;;;;;6.08;4.50;;;25.20;88.70;;;;;;1767349;80;21156;-84
2022/02/14 05:44:49;;;;;;;6.85;4.47;;;25.20;88.40;;;;;;1760687;80;21115;-83
2022/02/14 05:47:23;;;;;;;7.33;4.62;;;25.20;88.90;;;;;;1762034;81;21235;-84
2022/02/14 05:49:54;;;;;;;6.62;5.03;;;25.20;89.00;;;;;;1727531;82;21216;-72
2022/02/14 05:52:25;;;;;;;10.50;5.33;;;25.20;88.50;;;;;;1758662;80;21173;-70
2022/02/14 05:54:56;;;;;;;7.87;5.17;;;25.20;88.90;;;;;;1769570;80;21225;-70
2022/02/14 05:57:27;;;;;;;6.42;4.90;;;25.10;89.30;;;;;;1761743;81;21170;-70
2022/02/14 05:59:58;;;;;;;6.83;4.78;;;25.10;89.90;;;;;;1759283;81;21266;-72
2022/02/14 06:02:29;;;;;;;8.90;5.10;;;25.10;89.60;;;;;;1765123;80;21231;-72
2022/02/14 06:05:00;;;;;;;7.35;4.87;;;25.10;90.50;;;;;;1763729;80;21113;-72
2022/02/14 06:07:30;;;;;;;7.47;4.90;;;25.10;90.20;;;;;;1765270;80;21160;-72
2022/02/14 06:10:02;;;;;;;6.30;5.08;;;25.20;90.20;;;;;;1763176;80;21294;-72
2022/02/14 06:12:32;;;;;;;6.90;4.87;;;25.20;89.30;;;;;;1765700;80;21218;-72
2022/02/14 06:15:04;;;;;;;41.65;38.20;;;25.20;88.80;;;;;;1775263;80;21663;-71
2022/02/14 06:17:36;;;;;;;51.88;47.53;;;25.20;89.00;;;;;;1716115;82;21669;-71
2022/02/14 06:20:07;;;;;;;26.15;23.65;;;25.10;89.30;;;;;;1773001;80;21194;-72
2022/02/14 06:22:38;;;;;;;21.05;18.42;;;25.10;90.00;;;;;;1722030;82;21649;-72
2022/02/14 06:25:09;;;;;;;8.00;6.92;;;25.00;90.30;;;;;;1772045;80;21814;-71
2022/02/14 06:27:41;;;;;;;9.10;5.95;;;25.00;90.10;;;;;;1773585;80;21197;-70
2022/02/14 06:30:13;;;;;;;11.53;6.05;;;24.90;90.00;;;;;;1774899;80;21234;-71
2022/02/14 06:32:43;;;;;;;7.72;5.60;;;24.80;90.30;;;;;;1768104;80;21742;-71
2022/02/14 06:35:14;;;;;;;8.00;5.40;;;24.80;90.20;;;;;;1769062;80;21228;-72
2022/02/14 06:37:46;;;;;;;8.83;5.50;;;24.70;90.60;;;;;;1775693;80;21653;-70
2022/02/14 06:40:17;;;;;;;8.63;6.78;;;24.60;90.70;;;;;;1767247;80;21219;-73
2022/02/14 06:42:49;;;;;;;8.48;6.65;;;24.60;91.10;;;;;;1764199;80;21244;-73
2022/02/14 06:45:20;;;;;;;10.40;6.60;;;24.60;91.00;;;;;;1757185;81;21152;-73
2022/02/14 06:47:53;;;;;;;9.55;6.30;;;24.60;91.10;;;;;;1726785;82;21223;-72
2022/02/14 06:50:24;;;;;;;8.28;5.97;;;24.70;91.10;;;;;;1761353;80;21196;-72
2022/02/14 06:52:54;;;;;;;7.42;5.55;;;24.70;91.10;;;;;;1761978;80;21159;-71
2022/02/14 06:55:26;;;;;;;7.85;6.03;;;24.60;91.30;;;;;;1773890;80;21643;-72
2022/02/14 06:57:57;;;;;;;6.92;5.33;;;24.50;91.40;;;;;;1761981;80;21666;-71
2022/02/14 07:00:28;;;;;;;8.70;6.20;;;24.40;91.70;;;;;;1761524;80;21195;-71
2022/02/14 07:02:59;;;;;;;7.92;6.50;;;24.40;91.80;;;;;;1759465;80;21105;-72
2022/02/14 07:05:30;;;;;;;8.65;6.33;;;24.40;91.90;;;;;;1775551;80;21613;-72
2022/02/14 07:08:01;;;;;;;10.82;6.17;;;24.40;91.80;;;;;;1768389;80;21696;-72
2022/02/14 07:10:33;;;;;;;9.75;6.53;;;24.40;91.50;;;;;;1767509;80;21176;-71
2022/02/14 07:13:04;;;;;;;7.55;6.20;;;24.40;91.40;;;;;;1753658;80;21235;-73
2022/02/14 07:15:35;;;;;;;8.05;6.30;;;24.40;91.30;;;;;;1762094;80;21204;-72
2022/02/14 07:18:07;;;;;;;7.62;5.95;;;24.50;91.40;;;;;;1763311;80;21548;-72
2022/02/14 07:20:38;;;;;;;8.33;6.28;;;24.50;91.10;;;;;;1761522;80;21593;-72
2022/02/14 07:23:10;;;;;;;9.53;6.80;;;24.50;91.00;;;;;;1762725;80;21168;-70
2022/02/14 07:25:41;;;;;;;8.00;6.80;;;24.40;91.20;;;;;;1752019;80;21232;-72
2022/02/14 07:28:11;;;;;;;8.50;6.62;;;24.40;91.40;;;;;;1759815;80;21093;-71
2022/02/14 07:30:43;;;;;;;9.08;6.62;;;24.40;91.50;;;;;;1761460;81;21188;-71
2022/02/14 07:33:13;;;;;;;7.30;6.10;;;24.50;91.50;;;;;;1761795;80;21211;-71
2022/02/14 07:35:44;;;;;;;8.60;7.00;;;24.60;91.50;;;;;;1777557;80;21156;-71
2022/02/14 07:38:15;;;;;;;9.25;6.87;;;24.70;91.40;;;;;;1771306;80;21167;-72
2022/02/14 07:40:47;;;;;;;7.97;6.97;;;24.70;91.30;;;;;;1724200;83;21512;-71
2022/02/14 07:43:18;;;;;;;7.60;6.80;;;24.70;91.50;;;;;;1754906;80;21147;-72
2022/02/14 07:45:49;;;;;;;8.73;6.62;;;24.70;91.50;;;;;;1754650;80;21166;-71
2022/02/14 07:48:20;;;;;;;8.70;7.22;;;24.70;91.60;;;;;;1764571;80;21751;-71
2022/02/14 07:50:50;;;;;;;9.28;6.97;;;24.70;91.60;;;;;;1763784;80;21251;-72
2022/02/14 07:53:21;;;;;;;10.68;7.58;;;24.70;91.60;;;;;;1771684;80;21183;-70
2022/02/14 07:55:52;;;;;;;9.03;6.90;;;24.70;91.60;;;;;;1768914;80;21238;-72
2022/02/14 07:58:23;;;;;;;8.43;7.30;;;24.60;91.60;;;;;;1769324;80;21136;-71
2022/02/14 08:00:55;;;;;;;8.55;7.12;;;24.60;91.70;;;;;;1769122;80;21670;-71
2022/02/14 08:03:26;;;;;;;7.83;6.92;;;24.60;91.80;;;;;;1768124;81;21263;-72
2022/02/14 08:05:56;;;;;;;8.55;7.00;;;24.50;91.70;;;;;;1767726;80;21136;-71
2022/02/14 08:08:27;;;;;;;11.63;6.37;;;24.60;92.00;;;;;;1759493;80;21196;-70
2022/02/14 08:10:58;;;;;;;9.00;7.35;;;24.60;92.10;;;;;;1760327;80;21278;-70
2022/02/14 08:13:29;;;;;;;9.30;7.30;;;24.60;92.00;;;;;;1764095;81;21668;-71
2022/02/14 08:15:59;;;;;;;10.08;7.42;;;24.70;91.90;;;;;;1766883;81;21175;-71
2022/02/14 08:18:30;;;;;;;9.73;7.10;;;24.80;91.90;;;;;;1733079;82;21217;-71
2022/02/14 08:21:02;;;;;;;8.98;7.30;;;24.80;91.70;;;;;;1709039;82;21687;-71
2022/02/14 08:23:33;;;;;;;9.03;7.08;;;24.90;91.60;;;;;;1711967;83;21255;-73
2022/02/14 08:26:04;;;;;;;9.43;7.70;;;25.00;91.40;;;;;;1727497;82;21125;-70
2022/02/14 08:28:35;;;;;;;11.78;7.85;;;25.00;91.30;;;;;;1732938;82;21652;-70
2022/02/14 08:31:06;;;;;;;8.63;7.20;;;25.10;91.10;;;;;;1734141;82;22175;-70
2022/02/14 08:33:38;;;;;;;10.70;7.22;;;25.10;91.10;;;;;;1728917;82;21772;-72
2022/02/14 08:36:09;;;;;;;8.98;7.28;;;25.00;91.20;;;;;;1734527;82;21268;-72
2022/02/14 08:38:40;;;;;;;10.15;6.87;;;25.00;91.20;;;;;;1733223;82;21308;-70
2022/02/14 08:41:10;;;;;;;9.00;7.40;;;25.00;91.10;;;;;;1738707;82;21225;-71
2022/02/14 08:43:41;;;;;;;9.18;7.12;;;25.00;91.00;;;;;;1729082;82;21182;-71
2022/02/14 08:46:12;;;;;;;9.35;7.55;;;24.90;91.10;;;;;;1733513;82;21739;-71
2022/02/14 08:48:42;;;;;;;10.63;6.90;;;24.80;91.30;;;;;;1730834;81;21206;-71
2022/02/14 08:51:14;;;;;;;9.10;7.37;;;24.80;91.10;;;;;;1710682;82;21694;-70
2022/02/14 08:53:45;;;;;;;8.30;6.67;;;24.80;91.30;;;;;;1696480;84;21746;-70
2022/02/14 08:56:17;;;;;;;9.28;7.25;;;24.80;91.00;;;;;;1762956;81;21141;-72
2022/02/14 08:58:47;;;;;;;9.73;7.92;;;24.70;91.20;;;;;;1738052;82;21171;-73
2022/02/14 09:01:19;;;;;;;14.80;9.25;;;24.70;91.30;;;;;;1721596;82;21721;-71
2022/02/14 09:03:50;;;;;;;9.35;7.12;;;24.80;91.40;;;;;;1725518;82;21652;-71
2022/02/14 09:06:22;;;;;;;9.00;6.85;;;24.80;91.40;;;;;;1728008;82;21654;-71
2022/02/14 09:08:53;;;;;;;8.08;7.12;;;24.90;91.30;;;;;;1733833;81;21161;-70
2022/02/14 09:11:23;;;;;;;10.68;7.85;;;25.00;91.00;;;;;;1719453;82;21280;-71
2022/02/14 09:13:54;;;;;;;9.28;7.67;;;25.00;90.90;;;;;;1738839;82;21260;-69
2022/02/14 09:16:25;;;;;;;7.30;6.53;;;25.10;90.90;;;;;;1727275;82;21733;-69
2022/02/14 09:18:55;;;;;;;9.53;7.05;;;25.10;90.70;;;;;;1723217;83;21248;-71
2022/02/14 09:21:26;;;;;;;10.13;7.40;;;25.20;90.90;;;;;;1718834;83;21201;-70
2022/02/14 09:23:57;;;;;;;12.47;7.62;;;25.20;91.00;;;;;;1726278;82;21343;-70
2022/02/14 09:26:29;;;;;;;11.15;8.63;;;25.30;91.00;;;;;;1724724;82;21218;-71
2022/02/14 09:28:59;;;;;;;10.23;8.15;;;25.30;91.10;;;;;;1724673;82;21198;-72
2022/02/14 09:31:32;;;;;;;11.88;8.15;;;25.30;91.00;;;;;;1724501;82;21209;-72
2022/02/14 09:34:02;;;;;;;9.73;8.58;;;25.30;91.00;;;;;;1721816;82;21208;-72
2022/02/14 09:36:34;;;;;;;11.10;8.60;;;25.30;91.20;;;;;;1734965;82;21213;-71
2022/02/14 09:39:08;;;;;;;8.73;7.83;;;25.30;91.30;;;;;;1733526;81;21213;-71
2022/02/14 09:41:40;;;;;;;9.98;7.90;;;25.30;91.40;;;;;;1699541;84;21620;-71
2022/02/14 09:44:11;;;;;;;9.20;8.10;;;25.30;91.50;;;;;;1697519;84;21181;-71
2022/02/14 09:46:45;;;;;;;11.83;8.50;;;25.20;91.60;;;;;;1706483;84;21196;-70
2022/02/14 09:49:14;;;;;;;11.20;8.23;;;25.20;91.90;;;;;;1711730;82;21149;-71
2022/02/14 09:51:46;;;;;;;10.08;7.97;;;25.10;91.90;;;;;;1718971;83;21202;-71
2022/02/14 09:54:17;;;;;;;11.80;9.10;;;25.00;92.20;;;;;;1712735;82;21249;-71
2022/02/14 09:56:48;;;;;;;9.55;8.10;;;25.10;92.20;;;;;;1756735;80;21230;-71
2022/02/14 09:59:19;;;;;;;10.30;8.53;;;25.10;92.10;;;;;;1722979;83;21747;-70
2022/02/14 10:01:52;;;;;;;10.03;8.00;;;25.10;92.00;;;;;;1753838;80;21652;-71
2022/02/14 10:04:23;;;;;;;9.30;7.95;;;25.10;92.10;;;;;;1760399;81;21159;-70
2022/02/14 10:06:55;;;;;;;10.80;8.53;;;25.00;92.20;;;;;;1753578;80;21156;-71
2022/02/14 10:09:27;;;;;;;9.45;8.40;;;25.00;92.20;;;;;;1751874;80;21391;-73
2022/02/14 10:12:02;;;;;;;11.05;8.40;;;25.00;92.20;;;;;;1757421;80;22269;-71
2022/02/14 10:14:33;;;;;;;9.45;8.30;;;25.00;92.20;;;;;;1749825;80;21286;-84
2022/02/14 10:17:06;;;;;;;9.45;8.18;;;25.00;92.30;;;;;;1751528;80;21207;-82
2022/02/14 10:19:45;;;;;;;10.75;9.13;;;25.00;92.20;;;;;;1727096;83;21234;-85
2022/02/14 10:22:14;;;;;;;12.68;8.45;;;25.00;92.50;;;;;;1759782;80;21180;-84
2022/02/14 10:24:46;;;;;;;12.18;8.85;;;25.00;92.10;;;;;;1760446;80;21101;-82
2022/02/14 10:27:18;;;;;;;11.57;8.85;;;25.10;92.30;;;;;;1762687;81;21836;-83
2022/02/14 10:29:48;;;;;;;12.98;8.60;;;25.10;91.80;;;;;;1762594;80;21121;-82
2022/02/14 10:32:21;;;;;;;12.82;8.73;;;25.10;91.70;;;;;;1764767;80;21423;-82
2022/02/14 10:34:55;;;;;;;12.13;8.98;;;25.10;91.50;;;;;;1764979;80;21258;-84
2022/02/14 10:37:28;;;;;;;11.05;9.20;;;25.00;91.50;;;;;;1759344;81;21188;-82
2022/02/14 10:39:59;;;;;;;10.75;8.58;;;25.00;91.70;;;;;;1757381;80;21102;-82
2022/02/14 10:42:32;;;;;;;11.33;8.85;;;25.00;91.60;;;;;;1727815;83;21263;-82
2022/02/14 10:45:08;;;;;;;10.68;9.48;;;24.90;91.60;;;;;;1764289;80;21627;-82
2022/02/14 10:47:40;;;;;;;12.43;8.78;;;24.90;91.60;;;;;;1762982;80;22077;-83
2022/02/14 10:50:13;;;;;;;11.18;8.95;;;24.90;91.70;;;;;;1762288;81;21108;-83
2022/02/14 10:52:46;;;;;;;13.40;9.40;;;24.90;91.70;;;;;;1760591;80;21750;-83
2022/02/14 10:55:20;;;;;;;15.75;9.98;;;24.90;91.80;;;;;;1747384;81;21182;-81
2022/02/14 10:57:52;;;;;;;13.22;9.98;;;24.80;91.80;;;;;;1712383;83;21237;-82
2022/02/14 11:00:26;;;;;;;11.57;9.38;;;24.80;92.00;;;;;;1720566;82;21178;-81
2022/02/14 11:02:58;;;;;;;13.80;11.22;;;24.80;91.90;;;;;;1733980;82;21158;-82
2022/02/14 11:05:30;;;;;;;12.70;10.23;;;24.80;92.00;;;;;;1715372;83;21550;-83
2022/02/14 11:08:01;;;;;;;15.45;10.38;;;24.80;92.00;;;;;;1747336;81;21150;-83
2022/02/14 11:10:33;;;;;;;16.65;10.95;;;24.80;92.00;;;;;;1717194;82;21733;-84
2022/02/14 11:13:04;;;;;;;25.52;14.87;;;24.80;92.20;;;;;;1749371;81;21528;-83
2022/02/14 11:15:36;;;;;;;24.98;14.98;;;24.80;92.10;;;;;;1750039;81;21205;-83
2022/02/14 11:18:08;;;;;;;19.80;12.25;;;24.70;92.20;;;;;;1747526;81;21087;-83
2022/02/14 11:20:40;;;;;;;16.67;11.90;;;24.70;92.30;;;;;;1746501;82;21221;-83
2022/02/14 11:23:13;;;;;;;20.88;11.83;;;24.70;92.30;;;;;;1717005;83;21119;-82
2022/02/14 11:25:46;;;;;;;18.37;11.35;;;24.60;92.50;;;;;;1748602;82;21167;-82
2022/02/14 11:28:19;;;;;;;13.62;9.75;;;24.60;92.60;;;;;;1742892;82;21143;-83
2022/02/14 11:30:52;;;;;;;12.80;9.18;;;24.60;92.60;;;;;;1745565;81;21866;-82
2022/02/14 11:33:24;;;;;;;12.58;9.40;;;24.60;92.50;;;;;;1712692;83;21588;-83
2022/02/14 11:36:00;;;;;;;12.00;9.45;;;24.50;92.70;;;;;;1739923;81;21202;-83
2022/02/14 11:38:31;;;;;;;11.80;9.88;;;24.50;92.70;;;;;;1745909;81;21151;-82
2022/02/14 11:41:04;;;;;;;10.32;9.28;;;24.40;92.60;;;;;;1745328;82;21641;-82
2022/02/14 11:43:37;;;;;;;12.47;9.20;;;24.40;92.60;;;;;;1742518;82;21206;-82
2022/02/14 11:46:11;;;;;;;12.40;9.75;;;24.40;92.90;;;;;;1717952;83;21222;-82
2022/02/14 11:48:42;;;;;;;10.95;9.13;;;24.40;93.00;;;;;;1749956;81;21213;-83
2022/02/14 11:51:23;;;;;;;11.15;9.85;;;24.30;93.00;;;;;;1747819;82;21174;-81
2022/02/14 11:53:49;;;;;;;14.90;10.00;;;24.30;93.30;;;;;;1756375;80;21245;-83
2022/02/14 11:56:22;;;;;;;11.63;9.28;;;24.30;93.30;;;;;;1728709;83;21287;-84
2022/02/14 11:58:55;;;;;;;10.95;9.68;;;24.20;93.50;;;;;;1729866;83;21727;-83
2022/02/14 12:01:26;;;;;;;12.40;9.85;;;24.20;93.70;;;;;;1726679;83;21189;-83
2022/02/14 12:03:59;;;;;;;13.72;11.05;;;24.20;93.80;;;;;;1762837;81;21144;-83
2022/02/14 12:06:30;;;;;;;12.58;10.15;;;24.20;93.80;;;;;;1760011;80;21234;-83
2022/02/14 12:09:06;;;;;;;12.55;9.70;;;24.10;93.70;;;;;;1730108;83;21163;-81
2022/02/14 12:11:37;;;;;;;12.23;10.63;;;24.10;93.90;;;;;;1762686;80;21172;-84
2022/02/14 12:14:10;;;;;;;13.30;10.28;;;24.10;94.00;;;;;;1760268;81;21117;-83
2022/02/14 12:21:47;;;;;;;13.05;10.25;;;24.00;93.80;;;;;;1758056;80;21702;-82
2022/02/14 12:24:21;;;;;;;12.78;10.32;;;24.00;93.90;;;;;;1761221;81;21211;-82
2022/02/14 12:26:54;;;;;;;13.00;10.43;;;24.00;93.90;;;;;;1723002;83;21145;-83
2022/02/14 12:29:35;;;;;;;12.55;10.35;;;23.90;94.00;;;;;;1762830;81;21303;-84
2022/02/14 12:32:00;;;;;;;13.88;11.03;;;24.00;94.20;;;;;;1729125;83;21177;-83
2022/02/14 12:34:37;;;;;;;13.30;10.90;;;24.00;94.00;;;;;;1729633;83;21208;-82
2022/02/14 12:37:08;;;;;;;12.93;10.45;;;24.00;94.00;;;;;;1724314;83;21150;-83
2022/02/14 12:39:41;;;;;;;15.48;11.25;;;24.00;94.10;;;;;;1758496;81;21239;-82
2022/02/14 12:42:15;;;;;;;11.40;10.20;;;24.00;94.10;;;;;;1722034;83;21224;-84
2022/02/14 12:44:46;;;;;;;13.18;10.03;;;24.10;93.90;;;;;;1762056;81;21647;-83
2022/02/14 12:47:19;;;;;;;14.73;11.18;;;24.10;94.00;;;;;;1762632;80;21242;-83
2022/02/14 12:49:54;;;;;;;12.73;11.08;;;24.10;94.20;;;;;;1775356;80;21132;-83
2022/02/14 12:52:25;;;;;;;12.28;10.40;;;24.10;94.10;;;;;;1757476;81;21188;-83
2022/02/14 12:54:59;;;;;;;13.18;10.93;;;24.10;94.10;;;;;;1764108;80;21562;-82
2022/02/14 12:57:32;;;;;;;12.50;10.65;;;24.10;94.00;;;;;;1762584;80;21632;-83
2022/02/14 13:00:04;;;;;;;11.40;10.28;;;24.10;94.10;;;;;;1728521;83;21310;-84
2022/02/14 13:02:35;;;;;;;12.20;10.15;;;24.10;94.00;;;;;;1723695;82;21145;-83
2022/02/14 13:05:08;;;;;;;11.90;10.30;;;24.10;94.00;;;;;;1761299;81;21628;-83